createdAt,value
2018-04-07T00:02:12.206Z,66.76
2018-04-07T00:04:37.981Z,67.02
2018-04-07T00:07:03.719Z,66.99
2018-04-07T00:09:29.504Z,66.74
2018-04-07T00:11:55.697Z,67.09
2018-04-07T00:14:21.438Z,67.27
2018-04-07T00:16:47.169Z,67.31
2018-04-07T00:19:12.934Z,67.08
2018-04-07T00:21:38.678Z,67.30
2018-04-07T00:24:04.433Z,67.79
2018-04-07T00:26:30.149Z,67.81
2018-04-07T00:28:55.895Z,67.25
2018-04-07T00:31:21.614Z,67.14
2018-04-07T00:33:47.354Z,67.56
2018-04-07T00:36:13.133Z,67.36
2018-04-07T00:38:38.879Z,67.32
2018-04-07T00:41:04.613Z,67.44
2018-04-07T00:43:30.368Z,67.13
2018-04-07T00:45:56.097Z,67.09
2018-04-07T00:48:21.850Z,67.23
2018-04-07T00:50:47.597Z,67.13
2018-04-07T00:53:13.326Z,66.41
2018-04-07T00:55:39.070Z,66.05
2018-04-07T00:58:04.834Z,66.46
2018-04-07T01:00:30.602Z,66.17
2018-04-07T01:02:56.338Z,66.50
2018-04-07T01:05:22.078Z,65.96
2018-04-07T01:07:47.825Z,65.70
2018-04-07T01:10:13.580Z,65.30
2018-04-07T01:12:39.328Z,66.10
2018-04-07T01:15:05.076Z,65.62
2018-04-07T01:17:30.804Z,65.59
2018-04-07T01:19:56.558Z,65.06
2018-04-07T01:22:22.286Z,65.11
2018-04-07T01:24:48.032Z,65.19
2018-04-07T01:27:13.761Z,64.21
2018-04-07T01:29:39.509Z,64.19
2018-04-07T01:32:05.246Z,64.06
2018-04-07T01:34:30.982Z,63.67
2018-04-07T01:36:56.715Z,63.42
2018-04-07T01:39:22.470Z,63.16
2018-04-07T01:41:48.201Z,63.49
2018-04-07T01:44:13.957Z,62.38
2018-04-07T01:46:39.705Z,62.47
2018-04-07T01:49:05.442Z,62.58
2018-04-07T01:51:31.165Z,61.74
2018-04-07T01:53:56.914Z,62.18
2018-04-07T01:56:22.649Z,62.15
2018-04-07T01:58:48.378Z,62.26
2018-04-07T02:01:14.112Z,62.16
2018-04-07T02:03:39.842Z,62.27
2018-04-07T02:06:05.578Z,62.37
2018-04-07T02:08:31.354Z,61.99
2018-04-07T02:10:57.106Z,62.45
2018-04-07T02:13:22.842Z,61.44
2018-04-07T02:15:48.597Z,61.73
2018-04-07T02:18:14.329Z,61.55
2018-04-07T02:20:40.060Z,61.82
2018-04-07T02:23:05.789Z,61.54
2018-04-07T02:25:31.525Z,61.50
2018-04-07T02:27:57.258Z,61.91
2018-04-07T02:30:23.005Z,62.05
2018-04-07T02:32:49.232Z,61.98
2018-04-07T02:35:14.989Z,62.12
2018-04-07T02:37:40.718Z,61.96
2018-04-07T02:40:06.453Z,60.58
2018-04-07T02:42:32.176Z,61.39
2018-04-07T02:44:57.918Z,61.22
2018-04-07T02:47:23.650Z,61.29
2018-04-07T02:49:49.378Z,61.23
2018-04-07T02:52:15.114Z,60.71
2018-04-07T02:54:40.859Z,61.38
2018-04-07T02:57:06.581Z,61.87
2018-04-07T02:59:32.290Z,61.74
2018-04-07T03:01:58.023Z,61.30
2018-04-07T03:04:23.739Z,61.45
2018-04-07T03:06:49.483Z,61.90
2018-04-07T03:09:15.211Z,61.89
2018-04-07T03:11:40.963Z,61.92
2018-04-07T03:14:06.690Z,61.49
2018-04-07T03:16:32.425Z,61.70
2018-04-07T03:18:58.154Z,61.33
2018-04-07T03:21:23.901Z,61.46
2018-04-07T03:23:49.642Z,61.31
2018-04-07T03:26:15.370Z,61.12
2018-04-07T03:28:41.088Z,61.60
2018-04-07T03:31:06.826Z,61.97
2018-04-07T03:33:32.546Z,62.48
2018-04-07T03:35:58.293Z,61.41
2018-04-07T03:38:24.014Z,61.84
2018-04-07T03:40:49.753Z,62.06
2018-04-07T03:43:15.513Z,62.17
2018-04-07T03:45:41.254Z,62.73
2018-04-07T03:48:06.979Z,62.54
2018-04-07T03:50:32.733Z,62.29
2018-04-07T03:52:58.457Z,62.74
2018-04-07T03:55:24.200Z,63.02
2018-04-07T03:57:49.971Z,62.35
2018-04-07T04:00:15.721Z,62.44
2018-04-07T04:02:41.461Z,63.00
2018-04-07T04:05:07.213Z,63.24
2018-04-07T04:07:32.937Z,63.03
2018-04-07T04:09:58.665Z,63.06
2018-04-07T04:12:24.405Z,62.72
2018-04-07T04:14:50.150Z,62.96
2018-04-07T04:17:15.890Z,62.71
2018-04-07T04:19:41.617Z,62.60
2018-04-07T04:22:07.355Z,63.03
2018-04-07T04:24:33.084Z,62.96
2018-04-07T04:26:58.814Z,62.99
2018-04-07T04:29:24.529Z,62.62
2018-04-07T04:31:50.261Z,62.30
2018-04-07T04:34:15.984Z,62.48
2018-04-07T04:36:41.722Z,63.08
2018-04-07T04:39:07.446Z,62.55
2018-04-07T04:41:33.214Z,63.17
2018-04-07T04:43:58.946Z,62.71
2018-04-07T04:46:24.671Z,63.12
2018-04-07T04:48:50.398Z,63.05
2018-04-07T04:51:16.130Z,62.91
2018-04-07T04:53:41.865Z,63.00
2018-04-07T04:56:07.590Z,63.25
2018-04-07T04:58:33.318Z,63.49
2018-04-07T05:00:59.056Z,62.83
2018-04-07T05:03:24.773Z,62.85
2018-04-07T05:05:50.498Z,62.55
2018-04-07T05:08:16.224Z,62.55
2018-04-07T05:10:41.954Z,62.11
2018-04-07T05:13:07.671Z,62.17
2018-04-07T05:15:33.414Z,62.52
2018-04-07T05:17:59.158Z,61.87
2018-04-07T05:20:24.913Z,61.78
2018-04-07T05:22:50.651Z,62.22
2018-04-07T05:25:16.387Z,62.02
2018-04-07T05:27:42.113Z,62.04
2018-04-07T05:30:07.841Z,62.06
2018-04-07T05:32:33.568Z,61.68
2018-04-07T05:34:59.301Z,61.44
2018-04-07T05:37:25.038Z,62.28
2018-04-07T05:39:50.758Z,62.08
2018-04-07T05:42:16.497Z,61.51
2018-04-07T05:44:42.209Z,61.09
2018-04-07T05:47:07.938Z,60.94
2018-04-07T05:49:33.659Z,60.95
2018-04-07T05:51:59.390Z,60.60
2018-04-07T05:54:25.143Z,60.78
2018-04-07T05:56:50.879Z,60.46
2018-04-07T05:59:16.607Z,60.74
2018-04-07T06:01:42.350Z,60.25
2018-04-07T06:04:08.090Z,59.94
2018-04-07T06:06:33.825Z,60.37
2018-04-07T06:08:59.546Z,60.12
2018-04-07T06:11:25.283Z,60.59
2018-04-07T06:13:51.014Z,59.82
2018-04-07T06:16:16.753Z,59.68
2018-04-07T06:18:42.481Z,59.26
2018-04-07T06:21:08.225Z,58.82
2018-04-07T06:23:33.944Z,58.30
2018-04-07T06:25:59.673Z,58.21
2018-04-07T06:28:25.414Z,58.43
2018-04-07T06:30:51.137Z,57.92
2018-04-07T06:33:16.866Z,57.88
2018-04-07T06:35:42.610Z,57.46
2018-04-07T06:38:08.372Z,57.55
2018-04-07T06:40:34.088Z,57.53
2018-04-07T06:42:59.832Z,57.11
2018-04-07T06:45:25.558Z,57.25
2018-04-07T06:47:51.285Z,56.64
2018-04-07T06:50:17.026Z,57.52
2018-04-07T06:52:42.754Z,56.30
2018-04-07T06:55:08.490Z,57.09
2018-04-07T06:57:34.223Z,56.46
2018-04-07T06:59:59.941Z,56.62
2018-04-07T07:02:25.657Z,55.18
2018-04-07T07:04:51.385Z,55.14
2018-04-07T07:07:17.118Z,55.29
2018-04-07T07:09:42.850Z,55.20
2018-04-07T07:12:08.580Z,53.77
2018-04-07T07:14:34.310Z,54.28
2018-04-07T07:17:00.052Z,54.05
2018-04-07T07:19:25.776Z,53.77
2018-04-07T07:21:51.505Z,53.47
2018-04-07T07:24:17.286Z,52.36
2018-04-07T07:26:42.974Z,52.31
2018-04-07T07:29:08.713Z,52.25
2018-04-07T07:31:34.438Z,52.28
2018-04-07T07:34:00.194Z,50.93
2018-04-07T07:36:25.922Z,50.79
2018-04-07T07:38:51.744Z,50.41
2018-04-07T07:41:17.495Z,49.53
2018-04-07T07:43:43.278Z,49.68
2018-04-07T07:46:09.035Z,48.23
2018-04-07T07:48:34.799Z,48.87
2018-04-07T07:51:00.547Z,48.17
2018-04-07T07:53:26.308Z,48.01
2018-04-07T07:55:52.095Z,48.40
2018-04-07T07:58:17.851Z,46.86
2018-04-07T08:00:43.613Z,46.01
2018-04-07T08:03:09.385Z,45.55
2018-04-07T08:05:35.144Z,45.88
2018-04-07T08:10:33.321Z,45.42
2018-04-07T08:12:59.073Z,45.44
2018-04-07T08:15:24.830Z,44.35
2018-04-07T08:17:50.588Z,45.33
2018-04-07T08:20:16.328Z,44.92
2018-04-07T08:22:42.078Z,43.88
2018-04-07T08:25:07.830Z,44.32
2018-04-07T08:27:33.578Z,44.25
2018-04-07T08:29:59.307Z,43.79
2018-04-07T08:32:25.061Z,44.41
2018-04-07T08:34:50.815Z,44.87
2018-04-07T08:37:16.575Z,44.40
2018-04-07T08:39:42.331Z,44.39
2018-04-07T08:42:08.130Z,43.61
2018-04-07T08:44:33.841Z,43.91
2018-04-07T08:46:59.590Z,43.14
2018-04-07T08:49:25.335Z,42.29
2018-04-07T08:51:51.066Z,42.28
2018-04-07T08:54:16.827Z,42.14
2018-04-07T08:56:42.554Z,42.90
2018-04-07T08:59:08.298Z,42.42
2018-04-07T09:01:34.027Z,41.26
2018-04-07T09:03:59.785Z,41.15
2018-04-07T09:06:25.516Z,41.51
2018-04-07T09:08:51.245Z,41.47
2018-04-07T09:11:16.979Z,41.61
2018-04-07T09:13:42.696Z,40.94
2018-04-07T09:16:08.433Z,41.83
2018-04-07T09:18:34.171Z,40.81
2018-04-07T09:20:59.904Z,40.10
2018-04-07T09:23:25.632Z,40.04
2018-04-07T09:25:51.410Z,40.09
2018-04-07T09:28:17.100Z,39.28
2018-04-07T09:30:42.826Z,40.12
2018-04-07T09:33:08.563Z,39.85
2018-04-07T09:35:34.282Z,40.79
2018-04-07T09:38:00.014Z,40.99
2018-04-07T09:40:25.739Z,41.54
2018-04-07T09:42:51.470Z,42.24
2018-04-07T09:45:17.209Z,39.74
2018-04-07T09:47:42.941Z,40.41
2018-04-07T09:50:08.698Z,40.47
2018-04-07T09:52:34.430Z,39.21
2018-04-07T09:55:00.174Z,39.76
2018-04-07T09:57:25.899Z,39.56
2018-04-07T09:59:51.696Z,39.69
2018-04-07T10:02:19.245Z,38.93
2018-04-07T10:04:45.009Z,38.76
2018-04-07T10:07:11.544Z,39.80
2018-04-07T10:09:37.273Z,38.60
2018-04-07T10:12:03.001Z,38.66
2018-04-07T10:14:28.737Z,38.09
2018-04-07T10:16:54.465Z,40.31
2018-04-07T10:19:20.215Z,38.30
2018-04-07T10:21:45.954Z,39.67
2018-04-07T10:24:11.701Z,38.10
2018-04-07T10:26:37.441Z,37.48
2018-04-07T10:29:03.179Z,37.99
2018-04-07T10:31:28.904Z,38.20
2018-04-07T10:33:54.658Z,38.87
2018-04-07T10:36:20.399Z,37.82
2018-04-07T10:38:46.125Z,38.22
2018-04-07T10:41:11.861Z,38.37
2018-04-07T10:43:37.599Z,39.75
2018-04-07T10:46:03.342Z,37.46
2018-04-07T10:48:29.099Z,37.96
2018-04-07T10:50:54.834Z,38.43
2018-04-07T10:53:21.092Z,37.00
2018-04-07T10:55:46.977Z,37.51
2018-04-07T10:58:12.709Z,37.38
2018-04-07T11:00:38.456Z,36.90
2018-04-07T11:03:04.177Z,37.49
2018-04-07T11:05:29.949Z,36.12
2018-04-07T11:07:56.145Z,36.45
2018-04-07T11:10:21.885Z,36.56
2018-04-07T11:12:47.631Z,36.11
2018-04-07T11:15:13.365Z,35.59
2018-04-07T11:17:39.098Z,36.33
2018-04-07T11:20:04.854Z,35.98
2018-04-07T11:22:30.790Z,36.24
2018-04-07T11:24:56.781Z,35.71
2018-04-07T11:27:22.814Z,34.06
2018-04-07T11:29:48.597Z,35.12
2018-04-07T11:32:14.326Z,35.06
2018-04-07T11:34:40.061Z,35.01
2018-04-07T11:37:05.800Z,34.94
2018-04-07T11:39:31.535Z,34.58
2018-04-07T11:41:57.269Z,36.21
2018-04-07T11:44:23.018Z,35.71
2018-04-07T11:46:49.417Z,36.04
2018-04-07T11:49:15.171Z,36.29
2018-04-07T11:51:40.926Z,35.53
2018-04-07T11:54:06.658Z,34.78
2018-04-07T11:56:32.401Z,34.62
2018-04-07T11:58:58.206Z,34.24
2018-04-07T12:01:23.955Z,34.62
2018-04-07T12:03:49.676Z,33.63
2018-04-07T12:06:15.422Z,33.84
2018-04-07T12:08:41.137Z,33.21
2018-04-07T12:11:06.885Z,35.69
2018-04-07T12:13:32.608Z,34.38
2018-04-07T12:15:58.362Z,34.44
2018-04-07T12:18:24.086Z,33.45
2018-04-07T12:20:49.834Z,34.14
2018-04-07T12:23:15.566Z,33.51
2018-04-07T12:25:41.308Z,34.90
2018-04-07T12:28:07.040Z,35.84
2018-04-07T12:30:32.782Z,35.46
2018-04-07T12:32:58.514Z,35.02
2018-04-07T12:35:24.246Z,34.21
2018-04-07T12:37:49.978Z,35.99
2018-04-07T12:40:15.718Z,33.91
2018-04-07T12:42:41.438Z,35.54
2018-04-07T12:45:07.177Z,34.11
2018-04-07T12:47:32.905Z,35.70
2018-04-07T12:49:58.654Z,34.60
2018-04-07T12:52:24.372Z,34.85
2018-04-07T12:54:50.113Z,32.71
2018-04-07T12:57:15.896Z,34.16
2018-04-07T12:59:41.656Z,33.40
2018-04-07T13:02:07.373Z,32.19
2018-04-07T13:04:33.106Z,32.09
2018-04-07T13:06:58.842Z,32.46
2018-04-07T13:09:24.593Z,31.15
2018-04-07T13:11:50.321Z,30.83
2018-04-07T13:14:16.057Z,31.28
2018-04-07T13:16:41.808Z,31.52
2018-04-07T13:19:07.574Z,32.19
2018-04-07T13:21:33.310Z,31.54
2018-04-07T13:23:59.042Z,31.22
2018-04-07T13:26:24.786Z,30.52
2018-04-07T13:28:50.524Z,31.49
2018-04-07T13:31:16.266Z,31.63
2018-04-07T13:33:41.996Z,31.77
2018-04-07T13:36:07.735Z,32.07
2018-04-07T13:38:33.454Z,31.72
2018-04-07T13:40:59.190Z,32.25
2018-04-07T13:43:24.922Z,32.68
2018-04-07T13:45:50.660Z,33.28
2018-04-07T13:48:16.394Z,32.69
2018-04-07T13:50:42.129Z,32.95
2018-04-07T13:53:07.849Z,34.13
2018-04-07T13:55:33.600Z,32.22
2018-04-07T13:57:59.333Z,31.61
2018-04-07T14:00:25.086Z,30.86
2018-04-07T14:02:50.813Z,31.12
2018-04-07T14:05:16.546Z,32.58
2018-04-07T14:07:42.292Z,32.34
2018-04-07T14:10:08.025Z,31.67
2018-04-07T14:12:33.766Z,31.98
2018-04-07T14:14:59.522Z,32.46
2018-04-07T14:17:25.267Z,32.40
2018-04-07T14:19:51.005Z,31.44
2018-04-07T14:22:16.750Z,32.20
2018-04-07T14:24:42.479Z,32.52
2018-04-07T14:27:08.226Z,32.19
2018-04-07T14:29:33.955Z,32.16
2018-04-07T14:31:59.694Z,33.07
2018-04-07T14:34:25.416Z,32.59
2018-04-07T14:36:51.167Z,31.85
2018-04-07T14:39:16.904Z,33.18
2018-04-07T14:41:42.648Z,32.72
2018-04-07T14:44:08.383Z,33.27
2018-04-07T14:46:34.131Z,32.83
2018-04-07T14:48:59.859Z,33.13
2018-04-07T14:51:25.611Z,34.02
2018-04-07T14:53:51.338Z,34.87
2018-04-07T14:56:17.088Z,34.74
2018-04-07T14:58:42.822Z,34.74
2018-04-07T15:01:08.558Z,34.31
2018-04-07T15:03:34.285Z,34.52
2018-04-07T15:06:00.025Z,35.00
2018-04-07T15:08:25.750Z,36.54
2018-04-07T15:10:51.470Z,35.13
2018-04-07T15:13:17.201Z,35.19
2018-04-07T15:15:42.929Z,33.96
2018-04-07T15:18:08.678Z,32.43
2018-04-07T15:20:34.443Z,32.20
2018-04-07T15:23:00.155Z,32.30
2018-04-07T15:25:25.880Z,31.87
2018-04-07T15:27:51.622Z,32.88
2018-04-07T15:30:17.362Z,33.10
2018-04-07T15:32:43.102Z,32.34
2018-04-07T15:35:08.825Z,35.48
2018-04-07T15:37:34.594Z,36.69
2018-04-07T15:40:00.314Z,37.24
2018-04-07T15:42:26.058Z,37.67
2018-04-07T15:44:58.889Z,37.01
2018-04-07T15:47:24.601Z,37.80
2018-04-07T15:49:50.328Z,38.04
2018-04-07T15:52:16.077Z,37.55
2018-04-07T15:54:41.806Z,37.43
2018-04-07T15:57:07.548Z,37.99
2018-04-07T15:59:33.289Z,37.70
2018-04-07T16:01:59.059Z,37.98
2018-04-07T16:04:24.815Z,38.27
2018-04-07T16:06:50.566Z,38.99
2018-04-07T16:09:16.307Z,38.79
2018-04-07T16:11:42.061Z,39.67
2018-04-07T16:14:07.793Z,39.99
2018-04-07T16:16:33.549Z,40.40
2018-04-07T16:18:59.279Z,41.06
2018-04-07T16:21:25.017Z,41.17
2018-04-07T16:23:50.746Z,41.74
2018-04-07T16:26:16.516Z,41.45
2018-04-07T16:28:42.266Z,42.26
2018-04-07T16:31:08.017Z,40.72
2018-04-07T16:33:33.804Z,41.68
2018-04-07T16:35:59.541Z,41.55
2018-04-07T16:38:25.294Z,41.60
2018-04-07T16:40:51.018Z,41.12
2018-04-07T16:43:16.761Z,42.21
2018-04-07T16:45:42.497Z,42.55
2018-04-07T16:48:08.291Z,43.00
2018-04-07T16:50:34.129Z,41.53
2018-04-07T16:52:59.885Z,41.72
2018-04-07T16:55:26.078Z,41.89
2018-04-07T16:57:51.878Z,42.86
2018-04-07T17:00:17.628Z,42.14
2018-04-07T17:02:43.425Z,42.13
2018-04-07T17:05:09.185Z,42.93
2018-04-07T17:07:34.910Z,43.36
2018-04-07T17:10:00.652Z,44.09
2018-04-07T17:12:26.402Z,44.43
2018-04-07T17:14:52.138Z,43.93
2018-04-07T17:17:17.954Z,44.79
2018-04-07T17:19:43.693Z,45.87
2018-04-07T17:22:09.437Z,46.77
2018-04-07T17:24:35.166Z,46.94
2018-04-07T17:27:00.885Z,47.45
2018-04-07T17:29:26.625Z,47.96
2018-04-07T17:31:52.359Z,47.47
2018-04-07T17:34:18.106Z,47.37
2018-04-07T17:36:43.838Z,47.67
2018-04-07T17:39:09.591Z,47.96
2018-04-07T17:41:35.313Z,48.45
2018-04-07T17:44:01.066Z,48.74
2018-04-07T17:46:26.801Z,49.29
2018-04-07T17:48:52.557Z,50.15
2018-04-07T17:51:18.291Z,50.22
2018-04-07T17:53:44.030Z,49.78
2018-04-07T17:56:09.771Z,49.36
2018-04-07T17:58:35.523Z,50.06
2018-04-07T18:01:01.294Z,50.70
2018-04-07T18:03:27.022Z,51.08
2018-04-07T18:05:52.769Z,51.93
2018-04-07T18:08:18.525Z,51.96
2018-04-07T18:10:44.259Z,52.35
2018-04-07T18:13:10.017Z,52.32
2018-04-07T18:15:35.769Z,52.23
2018-04-07T18:18:01.513Z,52.64
2018-04-07T18:20:28.139Z,52.64
2018-04-07T18:22:55.031Z,53.13
2018-04-07T18:25:22.616Z,53.74
2018-04-07T18:27:50.375Z,53.83
2018-04-07T18:30:17.666Z,54.23
2018-04-07T18:32:45.162Z,54.11
2018-04-07T18:35:13.105Z,54.15
2018-04-07T18:37:40.701Z,54.56
2018-04-07T18:40:08.027Z,54.63
2018-04-07T18:42:35.237Z,54.81
2018-04-07T18:45:02.293Z,54.74
2018-04-07T18:47:28.958Z,55.15
2018-04-07T18:49:56.725Z,54.68
2018-04-07T18:52:23.451Z,54.69
2018-04-07T18:54:50.706Z,54.52
2018-04-07T18:57:17.726Z,54.84
2018-04-07T18:59:44.026Z,54.88
2018-04-07T19:02:10.995Z,54.69
2018-04-07T19:04:37.546Z,55.24
2018-04-07T19:07:04.990Z,55.59
2018-04-07T19:09:32.082Z,55.42
2018-04-07T19:11:59.216Z,55.32
2018-04-07T19:14:26.024Z,55.15
2018-04-07T19:16:52.730Z,55.36
2018-04-07T19:19:18.547Z,55.45
2018-04-07T19:21:44.312Z,55.73
2018-04-07T19:24:10.226Z,56.03
2018-04-07T19:26:35.998Z,56.95
2018-04-07T19:29:02.698Z,57.17
2018-04-07T19:31:29.436Z,58.53
2018-04-07T19:33:55.207Z,59.07
2018-04-07T19:36:20.958Z,59.49
2018-04-07T19:38:46.714Z,58.62
2018-04-07T19:41:13.937Z,58.16
2018-04-07T19:43:40.672Z,57.65
2018-04-07T19:46:06.415Z,57.50
2018-04-07T19:48:32.164Z,56.86
2018-04-07T19:50:57.906Z,56.45
2018-04-07T19:53:23.663Z,56.86
2018-04-07T19:55:49.418Z,56.87
2018-04-07T19:58:15.157Z,56.20
2018-04-07T20:00:40.897Z,56.39
2018-04-07T20:03:06.629Z,55.92
2018-04-07T20:05:32.374Z,56.22
2018-04-07T20:07:58.130Z,55.92
2018-04-07T20:10:23.886Z,56.05
2018-04-07T20:12:49.635Z,55.98
2018-04-07T20:15:15.372Z,55.53
2018-04-07T20:17:41.110Z,55.39
2018-04-07T20:20:06.850Z,55.29
2018-04-07T20:22:32.600Z,55.26
2018-04-07T20:24:58.338Z,55.84
2018-04-07T20:27:24.085Z,56.02
2018-04-07T20:29:49.825Z,56.77
2018-04-07T20:32:15.556Z,57.27
2018-04-07T20:34:41.297Z,57.55
2018-04-07T20:37:07.034Z,57.97
2018-04-07T20:39:32.782Z,58.06
2018-04-07T20:42:11.129Z,57.94
2018-04-07T20:44:36.903Z,57.52
2018-04-07T20:47:02.685Z,58.26
2018-04-07T20:49:28.426Z,58.55
2018-04-07T20:51:54.154Z,59.21
2018-04-07T20:54:19.903Z,59.17
2018-04-07T20:56:45.646Z,59.68
2018-04-07T20:59:11.386Z,58.41
2018-04-07T21:01:37.114Z,57.78
2018-04-07T21:04:02.857Z,57.77
2018-04-07T21:06:28.600Z,57.72
2018-04-07T21:08:54.339Z,57.76
2018-04-07T21:11:20.101Z,57.99
2018-04-07T21:13:45.836Z,57.12
2018-04-07T21:16:11.561Z,56.40
2018-04-07T21:18:37.282Z,56.53
2018-04-07T21:21:03.018Z,57.23
2018-04-07T21:23:28.756Z,56.72
2018-04-07T21:25:54.503Z,56.11
2018-04-07T21:28:20.246Z,56.34
2018-04-07T21:30:45.998Z,56.33
2018-04-07T21:33:12.202Z,56.51
2018-04-07T21:35:37.958Z,56.60
2018-04-07T21:38:03.694Z,56.89
2018-04-07T21:40:29.442Z,57.12
2018-04-07T21:42:55.175Z,57.54
2018-04-07T21:45:20.914Z,58.02
2018-04-07T21:47:46.650Z,57.55
2018-04-07T21:50:12.414Z,58.29
2018-04-07T21:52:38.164Z,58.02
2018-04-07T21:55:04.406Z,58.20
2018-04-07T21:57:30.146Z,58.30
2018-04-07T21:59:55.896Z,57.95
2018-04-07T22:02:22.137Z,57.30
2018-04-07T22:04:47.887Z,57.06
2018-04-07T22:07:13.854Z,57.19
2018-04-07T22:09:39.906Z,57.54
2018-04-07T22:12:05.670Z,58.24
2018-04-07T22:14:31.421Z,58.28
2018-04-07T22:16:57.219Z,58.59
2018-04-07T22:19:23.002Z,59.13
2018-04-07T22:21:48.758Z,59.16
2018-04-07T22:24:15.618Z,59.72
2018-04-07T22:26:41.374Z,60.14
2018-04-07T22:29:07.101Z,59.56
2018-04-07T22:31:32.898Z,59.13
2018-04-07T22:33:58.641Z,58.76
2018-04-07T22:36:26.817Z,58.80
2018-04-07T22:38:52.586Z,58.01
2018-04-07T22:41:18.323Z,57.31
2018-04-07T22:43:44.064Z,57.66
2018-04-07T22:46:09.806Z,58.00
2018-04-07T22:48:35.538Z,57.86
2018-04-07T22:51:01.266Z,57.28
2018-04-07T22:53:27.014Z,57.34
2018-04-07T22:55:52.755Z,56.57
2018-04-07T22:58:18.494Z,57.41
2018-04-07T23:00:44.231Z,56.86
2018-04-07T23:03:09.959Z,57.17
2018-04-07T23:05:35.699Z,57.38
2018-04-07T23:08:01.435Z,57.10
2018-04-07T23:10:27.195Z,56.65
2018-04-07T23:12:52.930Z,56.80
2018-04-07T23:15:18.672Z,56.82
2018-04-07T23:17:44.444Z,56.11
2018-04-07T23:20:10.178Z,56.45
2018-04-07T23:22:36.013Z,56.72
2018-04-07T23:25:01.773Z,56.67
2018-04-07T23:27:27.825Z,56.92
2018-04-07T23:29:54.037Z,57.33
2018-04-07T23:32:19.789Z,57.60
2018-04-07T23:34:45.541Z,57.56
2018-04-07T23:37:11.283Z,58.61
2018-04-07T23:39:37.010Z,58.72
2018-04-07T23:42:02.752Z,59.15
2018-04-07T23:44:28.697Z,59.52
2018-04-07T23:46:54.555Z,59.42
2018-04-07T23:49:20.297Z,59.67
2018-04-07T23:51:46.050Z,59.66
2018-04-07T23:54:11.790Z,61.17
2018-04-07T23:56:37.542Z,61.28
2018-04-07T23:59:03.291Z,61.29
